Nearby METAR Reports

 

KMTN - Baltimore/Martin, Maryland, USA
Distance from station: SSE 8mi, 13km
Updated: Tue, 30-Sep-2014 1:51am EDT
Partly cloudy
Partly cloudy
 Wind from calm
Wind: Calm
Temperature: 66°F , 19°C
Dew Point: 66°F , 19°C
Humidity: 100%
Barometer: 29.95 inHg , 1014.2 hPa
Clouds: Partly cloudy
Visibility: 10 miles , 16 km
Cloud details: Partly cloudy 800 ft
2014/09/30 05:51 KMTN 300551Z AUTO 00000KT 10SM SCT008 19/19 A2995 RMK AO2
KDMH - Baltimore/Dwntwn, Maryland, USA
Distance from station: SW 12mi, 19km
Updated: Tue, 30-Sep-2014 12:54am EDT

 
Temperature: 66°F , 19°C
Dew Point: 63°F , 17°C
Humidity: 88%
Barometer: 29.93 inHg , 1013.5 hPa
2014/09/30 04:54 KDMH 300454Z AUTO 19/17 A2993 RMK AO1 SLP134 T01940172 402280183
 
KBWI - Balto/Wash Intl, Maryland, USA
Distance from station: SSW 20mi, 33km
Updated: Tue, 30-Sep-2014 1:36am EDT
Mist, Overcast
Mist, Overcast
 Wind from WSW
Wind: WSW 3 mph , 6 km/h
Temperature: 64°F , 18°C
Dew Point: 63°F , 17°C
Humidity: 94%
Barometer: 29.93 inHg , 1013.5 hPa
Summary: Mist
Clouds: Overcast
Visibility: 6 miles , 10 km
Cloud details: Mostly cloudy 700 ft
Overcast 11000 ft
2014/09/30 05:36 KBWI 300536Z 25003KT 6SM BR BKN007 OVC110 18/17 A2993 RMK AO2
KDMW - Carroll Cnty, Maryland, USA
Distance from station: WNW 30mi, 48km
Updated: Tue, 30-Sep-2014 1:50am EDT
Overcast
Overcast
 Wind from S
Wind: S 3 mph , 6 km/h
Temperature: 64°F , 18°C
Dew Point: 63°F , 17°C
Humidity: 94%
Barometer: 29.93 inHg , 1013.5 hPa
Clouds: Overcast
Visibility: 10 miles , 16 km
Cloud details: Overcast 11000 ft
2014/09/30 05:50 KDMW 300550Z AUTO 19003KT 10SM OVC110 18/17 A2993 RMK AO2
 
KNAK - Annapolis/Naval, Maryland, USA
Distance from station: S 30mi, 48km
Updated: Tue, 30-Sep-2014 12:54am EDT

 Wind from S
Wind: S 5 mph , 7 km/h
Temperature: 66°F , 19°C
Dew Point: 63°F , 17°C
Humidity: 88%
Barometer: 29.93 inHg , 1013.5 hPa
2014/09/30 04:54 KNAK 300454Z AUTO 17004KT 19/17 A2993 RMK AO2 SLP136 T01890172 402220178 PWINO $
KW29 - Stevensville, Maryland, USA
Distance from station: SSE 31mi, 50km
Updated: Tue, 30-Sep-2014 1:48am EDT

 Wind from SSW
Wind: SSW 3 mph , 6 km/h
Temperature: 64°F , 18°C
Dew Point: 64°F , 18°C
Humidity: 100%
Barometer: 29.94 inHg , 1013.9 hPa
Visibility: 10 miles , 16 km
2014/09/30 05:48 KW29 300548Z AUTO 21003KT 10SM 18/18 A2994 RMK AO1
 
KCGS - College Park, Maryland, USA
Distance from station: SW 38mi, 61km
Updated: Tue, 30-Sep-2014 1:45am EDT
Overcast
Overcast
 Wind from calm
Wind: Calm
Temperature: 68°F , 20°C
Dew Point: 66°F , 19°C
Humidity: 94%
Barometer: 29.93 inHg , 1013.5 hPa
Clouds: Overcast
Visibility: 10 miles , 16 km
Cloud details: Mostly cloudy 700 ft
Overcast 11000 ft
2014/09/30 05:45 KCGS 300545Z AUTO 00000KT 10SM BKN007 OVC110 20/19 A2993 RMK AO1
KGAI - Gaithersburg, Maryland, USA
Distance from station: WSW 40mi, 65km
Updated: Tue, 30-Sep-2014 1:35am EDT
Overcast
Overcast
 Wind from S
Wind: S 6 mph , 9 km/h
Temperature: 64°F , 18°C
Dew Point: 63°F , 17°C
Humidity: 94%
Barometer: 29.97 inHg , 1014.9 hPa
Clouds: Overcast
Visibility: 10 miles , 16 km
Cloud details: Mostly cloudy 500 ft
Overcast 12000 ft
2014/09/30 05:35 KGAI 300535Z 17005KT 10SM BKN005 OVC120 18/17 A2997 RMK AO1
 
KTHV - York, Pennsylvania, USA
Distance from station: NNW 40mi, 65km
Updated: Tue, 30-Sep-2014 12:53am EDT
Mist, Clear
Mist, Clear
 Wind from calm
Wind: Calm
Temperature: 63°F , 17°C
Dew Point: 61°F , 16°C
Humidity: 94%
Barometer: 29.92 inHg , 1013.2 hPa
Summary: Mist
Clouds: Clear
Visibility: 5 miles , 8 km
2014/09/30 04:53 KTHV 300453Z AUTO 00000KT 5SM BR CLR 17/16 A2992 RMK AO2 SLP132 T01670161 402390128
KFDK - Frederick, Maryland, USA
Distance from station: W 47mi, 75km
Updated: Tue, 30-Sep-2014 1:45am EDT
Partly cloudy
Partly cloudy
 Wind from calm
Wind: Calm
Temperature: 64°F , 18°C
Dew Point: 64°F , 18°C
Humidity: 100%
Barometer: 29.95 inHg , 1014.2 hPa
Clouds: Partly cloudy
Visibility: 7 miles , 11 km
Cloud details: Partly cloudy 11000 ft
2014/09/30 05:45 KFDK 300545Z AUTO 00000KT 7SM SCT110 18/18 A2995 RMK AO2
 
KESN - Easton/Newnam, Maryland, USA
Distance from station: SSE 48mi, 78km
Updated: Tue, 30-Sep-2014 2:01am EDT
Mist, Clear
Mist, Clear
 Wind from S
Wind: S 3 mph , 6 km/h
Temperature: 64°F , 18°C
Dew Point: 64°F , 18°C
Humidity: 100%
Barometer: 29.98 inHg , 1015.2 hPa
Summary: Mist
Clouds: Clear
Visibility: 3 miles , 5 km
2014/09/30 06:01 KESN 300601Z AUTO 19003KT 3SM BR CLR 18/18 A2998 RMK AO2 T01830183
KDCA - Washington/Natl, Washington D.c., USA
Distance from station: SW 49mi, 79km
Updated: Tue, 30-Sep-2014 1:48am EDT
Mostly cloudy
Mostly cloudy
 Wind from S
Wind: S 7 mph , 11 km/h
Temperature: 68°F , 20°C
Dew Point: 63°F , 17°C
Humidity: 83%
Barometer: 29.93 inHg , 1013.5 hPa
Clouds: Mostly cloudy
Visibility: 10 miles , 16 km
Cloud details: Few Clouds 800 ft
Mostly cloudy 11000 ft
Mostly cloudy 20000 ft
2014/09/30 05:48 KDCA 300548Z 19006KT 10SM FEW008 BKN110 BKN200 20/17 A2993 RMK AO2 $
 
KLNS - Lancaster, Pennsylvania, USA
Distance from station: N 49mi, 79km
Updated: Tue, 30-Sep-2014 1:35am EDT
Mist, Few clouds
Mist, Few clouds
 Wind from calm
Wind: Calm
Temperature: 63°F , 17°C
Dew Point: 61°F , 16°C
Humidity: 94%
Barometer: 29.93 inHg , 1013.5 hPa
Summary: Mist
Clouds: Few Clouds
Visibility: 1 1/4 miles , 2 km
Cloud details: Few Clouds 800 ft
2014/09/30 05:35 KLNS 300535Z AUTO 00000KT 1 1/4SM BR FEW008 17/16 A2993 RMK AO2 T01720161
KILG - Wilmington, Delaware, USA
Distance from station: ENE 50mi, 81km
Updated: Tue, 30-Sep-2014 12:51am EDT
Few Clouds
Few Clouds
 Wind from calm
Wind: Calm
Temperature: 64°F , 18°C
Dew Point: 63°F , 17°C
Humidity: 94%
Barometer: 29.93 inHg , 1013.5 hPa
Clouds: Few Clouds
Visibility: 8 miles , 13 km
Cloud details: Few Clouds 12000 ft
2014/09/30 04:51 KILG 300451Z AUTO 00000KT 8SM FEW120 18/17 A2993 RMK AO2 SLP136 T01830172 402280156 TSNO